sensor_id;sensor_type;location;lat;lon;timestamp;pressure;altitude;pressure_sealevel;temperature;humidity
74561;BME280;62979;55.720;37.606;2022-12-18T00:02:26;99222.44;;;-0.99;67.15
74561;BME280;62979;55.720;37.606;2022-12-18T00:04:55;99214.78;;;-0.96;67.46
74561;BME280;62979;55.720;37.606;2022-12-18T00:07:24;99210.47;;;-0.98;66.80
74561;BME280;62979;55.720;37.606;2022-12-18T00:09:51;99196.75;;;-1.02;66.90
74561;BME280;62979;55.720;37.606;2022-12-18T00:12:18;99201.91;;;-0.99;67.33
74561;BME280;62979;55.720;37.606;2022-12-18T00:14:45;99196.75;;;-1.02;66.88
74561;BME280;62979;55.720;37.606;2022-12-18T00:17:12;99189.03;;;-1.00;66.88
74561;BME280;62979;55.720;37.606;2022-12-18T00:19:39;99187.22;;;-1.09;66.76
74561;BME280;62979;55.720;37.606;2022-12-18T00:22:07;99182.09;;;-1.09;67.03
74561;BME280;62979;55.720;37.606;2022-12-18T00:24:34;99189.88;;;-1.03;66.79
74561;BME280;62979;55.720;37.606;2022-12-18T00:27:00;99179.59;;;-1.03;66.76
74561;BME280;62979;55.720;37.606;2022-12-18T00:29:27;99173.66;;;-1.00;66.47
74561;BME280;62979;55.720;37.606;2022-12-18T00:31:54;99171.19;;;-0.93;66.51
74561;BME280;62979;55.720;37.606;2022-12-18T00:34:21;99170.25;;;-0.99;65.92
74561;BME280;62979;55.720;37.606;2022-12-18T00:36:48;99148.00;;;-1.02;66.18
74561;BME280;62979;55.720;37.606;2022-12-18T00:39:17;99171.13;;;-0.99;65.78
74561;BME280;62979;55.720;37.606;2022-12-18T00:41:43;99166.78;;;-1.04;65.33
74561;BME280;62979;55.720;37.606;2022-12-18T00:44:28;99166.47;;;-1.26;65.50
74561;BME280;62979;55.720;37.606;2022-12-18T00:46:54;99170.00;;;-1.19;66.15
74561;BME280;62979;55.720;37.606;2022-12-18T00:49:21;99160.63;;;-1.16;66.32
74561;BME280;62979;55.720;37.606;2022-12-18T00:51:48;99153.84;;;-1.12;65.96
74561;BME280;62979;55.720;37.606;2022-12-18T00:54:17;99141.03;;;-1.08;66.14
74561;BME280;62979;55.720;37.606;2022-12-18T00:56:44;99135.06;;;-1.08;65.72
74561;BME280;62979;55.720;37.606;2022-12-18T00:59:11;99131.66;;;-1.05;65.73
74561;BME280;62979;55.720;37.606;2022-12-18T01:01:38;99128.88;;;-1.24;66.30
74561;BME280;62979;55.720;37.606;2022-12-18T01:04:05;99114.38;;;-1.20;67.11
74561;BME280;62979;55.720;37.606;2022-12-18T01:06:32;99108.41;;;-1.18;67.64
74561;BME280;62979;55.720;37.606;2022-12-18T01:08:59;99109.38;;;-1.11;66.46
74561;BME280;62979;55.720;37.606;2022-12-18T01:11:27;99116.34;;;-1.02;66.51
74561;BME280;62979;55.720;37.606;2022-12-18T01:13:54;99106.91;;;-1.03;66.67
74561;BME280;62979;55.720;37.606;2022-12-18T01:16:27;99102.44;;;-1.18;66.26
74561;BME280;62979;55.720;37.606;2022-12-18T01:18:54;99102.41;;;-1.21;65.99
74561;BME280;62979;55.720;37.606;2022-12-18T01:21:22;99098.16;;;-1.18;67.99
74561;BME280;62979;55.720;37.606;2022-12-18T01:23:53;99098.97;;;-1.22;66.54
74561;BME280;62979;55.720;37.606;2022-12-18T01:26:21;99089.31;;;-1.40;66.12
74561;BME280;62979;55.720;37.606;2022-12-18T01:28:49;99083.31;;;-1.43;66.88
74561;BME280;62979;55.720;37.606;2022-12-18T01:31:18;99096.28;;;-1.30;66.78
74561;BME280;62979;55.720;37.606;2022-12-18T01:33:50;99101.50;;;-1.23;65.57
74561;BME280;62979;55.720;37.606;2022-12-18T01:36:20;99108.44;;;-1.16;65.93
74561;BME280;62979;55.720;37.606;2022-12-18T01:38:48;99108.50;;;-1.10;66.08
74561;BME280;62979;55.720;37.606;2022-12-18T01:41:18;99099.97;;;-1.11;65.35
74561;BME280;62979;55.720;37.606;2022-12-18T01:43:51;99104.28;;;-1.10;65.89
74561;BME280;62979;55.720;37.606;2022-12-18T01:46:26;99087.13;;;-1.12;66.49
74561;BME280;62979;55.720;37.606;2022-12-18T01:48:55;99092.34;;;-1.04;66.02
74561;BME280;62979;55.720;37.606;2022-12-18T01:51:25;99090.56;;;-1.10;65.48
74561;BME280;62979;55.720;37.606;2022-12-18T01:53:53;99098.28;;;-1.09;65.58
74561;BME280;62979;55.720;37.606;2022-12-18T01:56:21;99096.50;;;-1.14;65.38
74561;BME280;62979;55.720;37.606;2022-12-18T01:58:54;99093.09;;;-1.13;65.26
74561;BME280;62979;55.720;37.606;2022-12-18T02:01:27;99087.13;;;-1.11;65.50
74561;BME280;62979;55.720;37.606;2022-12-18T02:04:18;99080.28;;;-1.10;65.44
74561;BME280;62979;55.720;37.606;2022-12-18T02:06:50;99092.28;;;-1.09;65.34
74561;BME280;62979;55.720;37.606;2022-12-18T02:09:23;99072.59;;;-1.12;64.74
74561;BME280;62979;55.720;37.606;2022-12-18T02:12:02;99084.59;;;-1.09;65.19
74561;BME280;62979;55.720;37.606;2022-12-18T02:14:43;99082.09;;;-1.03;65.48
74561;BME280;62979;55.720;37.606;2022-12-18T02:17:18;99091.47;;;-1.05;64.73
74561;BME280;62979;55.720;37.606;2022-12-18T02:20:01;99097.50;;;-1.04;64.40
74561;BME280;62979;55.720;37.606;2022-12-18T02:22:41;99102.59;;;-1.06;64.51
74561;BME280;62979;55.720;37.606;2022-12-18T02:25:30;99098.31;;;-1.07;63.95
74561;BME280;62979;55.720;37.606;2022-12-18T02:28:19;99097.50;;;-1.04;63.74
74561;BME280;62979;55.720;37.606;2022-12-18T02:30:51;99084.56;;;-1.11;63.90
74561;BME280;62979;55.720;37.606;2022-12-18T02:33:27;99073.34;;;-1.17;64.52
74561;BME280;62979;55.720;37.606;2022-12-18T02:35:58;99082.84;;;-1.12;64.03
74561;BME280;62979;55.720;37.606;2022-12-18T02:38:27;99084.50;;;-1.15;63.95
74561;BME280;62979;55.720;37.606;2022-12-18T02:40:57;99082.00;;;-1.12;64.20
74561;BME280;62979;55.720;37.606;2022-12-18T02:43:27;99099.09;;;-1.11;63.69
74561;BME280;62979;55.720;37.606;2022-12-18T02:45:56;99085.41;;;-1.13;63.95
74561;BME280;62979;55.720;37.606;2022-12-18T02:48:29;99066.44;;;-1.26;63.75
74561;BME280;62979;55.720;37.606;2022-12-18T02:51:04;99085.44;;;-1.09;63.81
74561;BME280;62979;55.720;37.606;2022-12-18T02:53:45;99085.38;;;-1.16;63.87
74561;BME280;62979;55.720;37.606;2022-12-18T02:56:21;99099.09;;;-1.11;63.97
74561;BME280;62979;55.720;37.606;2022-12-18T02:58:59;99077.72;;;-1.12;63.67
74561;BME280;62979;55.720;37.606;2022-12-18T03:01:35;99094.88;;;-1.08;63.75
74561;BME280;62979;55.720;37.606;2022-12-18T03:04:13;99076.88;;;-1.12;63.46
74561;BME280;62979;55.720;37.606;2022-12-18T03:06:48;99077.72;;;-1.12;63.37
74561;BME280;62979;55.720;37.606;2022-12-18T03:09:24;99066.50;;;-1.20;63.52
74561;BME280;62979;55.720;37.606;2022-12-18T03:11:59;99066.56;;;-1.17;63.57
74561;BME280;62979;55.720;37.606;2022-12-18T03:14:52;99062.19;;;-1.22;64.06
74561;BME280;62979;55.720;37.606;2022-12-18T03:17:27;99075.06;;;-1.19;64.04
74561;BME280;62979;55.720;37.606;2022-12-18T03:20:00;99069.81;;;-1.27;64.61
74561;BME280;62979;55.720;37.606;2022-12-18T03:22:33;99076.66;;;-1.27;63.59
74561;BME280;62979;55.720;37.606;2022-12-18T03:25:06;99069.81;;;-1.27;63.83
74561;BME280;62979;55.720;37.606;2022-12-18T03:27:40;99083.59;;;-1.20;63.87
74561;BME280;62979;55.720;37.606;2022-12-18T03:30:15;99059.41;;;-1.41;64.52
74561;BME280;62979;55.720;37.606;2022-12-18T03:32:46;99088.69;;;-1.23;64.00
74561;BME280;62979;55.720;37.606;2022-12-18T03:35:22;99087.91;;;-1.19;63.90
74561;BME280;62979;55.720;37.606;2022-12-18T03:37:53;99081.78;;;-1.27;63.72
74561;BME280;62979;55.720;37.606;2022-12-18T03:40:21;99088.63;;;-1.28;63.88
74561;BME280;62979;55.720;37.606;2022-12-18T03:43:02;99080.03;;;-1.32;63.82
74561;BME280;62979;55.720;37.606;2022-12-18T03:45:41;99083.44;;;-1.33;63.31
74561;BME280;62979;55.720;37.606;2022-12-18T03:48:17;99067.09;;;-1.41;63.71
74561;BME280;62979;55.720;37.606;2022-12-18T03:50:51;99065.28;;;-1.46;63.45
74561;BME280;62979;55.720;37.606;2022-12-18T03:53:31;99053.22;;;-1.55;63.49
74561;BME280;62979;55.720;37.606;2022-12-18T03:56:04;99073.94;;;-1.40;64.15
74561;BME280;62979;55.720;37.606;2022-12-18T03:58:35;99081.66;;;-1.37;63.52
74561;BME280;62979;55.720;37.606;2022-12-18T04:01:12;99075.53;;;-1.48;63.75
74561;BME280;62979;55.720;37.606;2022-12-18T04:03:43;99059.38;;;-1.44;63.94
74561;BME280;62979;55.720;37.606;2022-12-18T04:06:14;99081.56;;;-1.46;64.22
74561;BME280;62979;55.720;37.606;2022-12-18T04:08:43;99076.50;;;-1.41;63.68
74561;BME280;62979;55.720;37.606;2022-12-18T04:11:11;99076.47;;;-1.43;63.23
74561;BME280;62979;55.720;37.606;2022-12-18T04:13:38;99069.56;;;-1.47;63.06
74561;BME280;62979;55.720;37.606;2022-12-18T04:16:06;99089.31;;;-1.40;63.20
74561;BME280;62979;55.720;37.606;2022-12-18T04:18:36;99095.34;;;-1.38;63.24
74561;BME280;62979;55.720;37.606;2022-12-18T04:21:03;99119.31;;;-1.36;62.71
74561;BME280;62979;55.720;37.606;2022-12-18T04:23:30;99126.06;;;-1.39;63.21
74561;BME280;62979;55.720;37.606;2022-12-18T04:25:57;99123.50;;;-1.41;62.56
74561;BME280;62979;55.720;37.606;2022-12-18T04:28:24;99107.25;;;-1.43;62.79
74561;BME280;62979;55.720;37.606;2022-12-18T04:30:50;99128.72;;;-1.36;63.19
74561;BME280;62979;55.720;37.606;2022-12-18T04:33:17;99128.63;;;-1.41;63.16
74561;BME280;62979;55.720;37.606;2022-12-18T04:35:46;99142.38;;;-1.36;63.10
74561;BME280;62979;55.720;37.606;2022-12-18T04:38:13;99145.84;;;-1.32;64.19
74561;BME280;62979;55.720;37.606;2022-12-18T04:40:41;99150.09;;;-1.36;64.01
74561;BME280;62979;55.720;37.606;2022-12-18T04:43:08;99121.66;;;-1.49;63.26
74561;BME280;62979;55.720;37.606;2022-12-18T04:45:35;99160.31;;;-1.37;63.58
74561;BME280;62979;55.720;37.606;2022-12-18T04:48:03;99161.97;;;-1.41;63.47
74561;BME280;62979;55.720;37.606;2022-12-18T04:50:30;99167.09;;;-1.41;64.30
74561;BME280;62979;55.720;37.606;2022-12-18T04:52:59;99180.88;;;-1.36;63.82
74561;BME280;62979;55.720;37.606;2022-12-18T04:55:26;99173.13;;;-1.39;64.11
74561;BME280;62979;55.720;37.606;2022-12-18T04:57:53;99173.09;;;-1.40;64.68
74561;BME280;62979;55.720;37.606;2022-12-18T05:00:21;99184.91;;;-1.50;64.25
74561;BME280;62979;55.720;37.606;2022-12-18T05:02:47;99172.78;;;-1.59;64.23
74561;BME280;62979;55.720;37.606;2022-12-18T05:05:15;99142.69;;;-1.72;63.97
74561;BME280;62979;55.720;37.606;2022-12-18T05:07:42;99155.88;;;-1.47;64.29
74561;BME280;62979;55.720;37.606;2022-12-18T05:10:10;99160.16;;;-1.48;63.68
74561;BME280;62979;55.720;37.606;2022-12-18T05:12:37;99166.19;;;-1.44;63.91
74561;BME280;62979;55.720;37.606;2022-12-18T05:15:23;99166.16;;;-1.47;63.44
74561;BME280;62979;55.720;37.606;2022-12-18T05:17:51;99173.06;;;-1.43;63.50
74561;BME280;62979;55.720;37.606;2022-12-18T05:20:18;99173.88;;;-1.46;63.35
74561;BME280;62979;55.720;37.606;2022-12-18T05:22:45;99174.72;;;-1.45;63.68
74561;BME280;62979;55.720;37.606;2022-12-18T05:25:13;99193.50;;;-1.48;63.89
74561;BME280;62979;55.720;37.606;2022-12-18T05:27:40;99187.41;;;-1.55;63.13
74561;BME280;62979;55.720;37.606;2022-12-18T05:30:08;99208.88;;;-1.46;62.99
74561;BME280;62979;55.720;37.606;2022-12-18T05:32:35;99213.91;;;-1.54;63.30
74561;BME280;62979;55.720;37.606;2022-12-18T05:35:03;99209.63;;;-1.55;63.11
74561;BME280;62979;55.720;37.606;2022-12-18T05:37:31;99214.72;;;-1.57;63.20
74561;BME280;62979;55.720;37.606;2022-12-18T05:39:58;99217.88;;;-1.72;63.29
74561;BME280;62979;55.720;37.606;2022-12-18T05:42:27;99226.59;;;-1.62;63.66
74561;BME280;62979;55.720;37.606;2022-12-18T05:44:54;99233.50;;;-1.56;63.62
74561;BME280;62979;55.720;37.606;2022-12-18T05:47:20;99229.28;;;-1.54;62.56
74561;BME280;62979;55.720;37.606;2022-12-18T05:49:47;99230.94;;;-1.58;62.75
74561;BME280;62979;55.720;37.606;2022-12-18T05:52:14;99225.63;;;-1.68;63.33
74561;BME280;62979;55.720;37.606;2022-12-18T05:54:41;99255.34;;;-1.78;62.83
74561;BME280;62979;55.720;37.606;2022-12-18T05:57:08;99256.41;;;-1.67;63.82
74561;BME280;62979;55.720;37.606;2022-12-18T05:59:36;99264.22;;;-1.61;63.67
74561;BME280;62979;55.720;37.606;2022-12-18T06:02:03;99249.59;;;-1.66;62.77
74561;BME280;62979;55.720;37.606;2022-12-18T06:04:31;99253.94;;;-1.62;62.74
74561;BME280;62979;55.720;37.606;2022-12-18T06:06:58;99265.00;;;-1.65;63.48
74561;BME280;62979;55.720;37.606;2022-12-18T06:09:29;99264.06;;;-1.70;63.17
74561;BME280;62979;55.720;37.606;2022-12-18T06:11:57;99276.03;;;-1.70;63.82
74561;BME280;62979;55.720;37.606;2022-12-18T06:14:24;99272.78;;;-1.60;63.36
74561;BME280;62979;55.720;37.606;2022-12-18T06:16:52;99273.56;;;-1.64;62.67
74561;BME280;62979;55.720;37.606;2022-12-18T06:19:19;99271.75;;;-1.70;62.78
74561;BME280;62979;55.720;37.606;2022-12-18T06:21:46;99294.97;;;-1.62;62.73
74561;BME280;62979;55.720;37.606;2022-12-18T06:24:14;99289.78;;;-1.65;62.74
74561;BME280;62979;55.720;37.606;2022-12-18T06:26:41;99283.78;;;-1.66;62.65
74561;BME280;62979;55.720;37.606;2022-12-18T06:29:08;99291.53;;;-1.61;62.17
74561;BME280;62979;55.720;37.606;2022-12-18T06:31:35;99292.44;;;-1.61;62.00
74561;BME280;62979;55.720;37.606;2022-12-18T06:34:04;99300.03;;;-1.64;62.24
74561;BME280;62979;55.720;37.606;2022-12-18T06:36:31;99305.94;;;-1.69;61.39
74561;BME280;62979;55.720;37.606;2022-12-18T06:38:58;99291.44;;;-1.67;61.74
74561;BME280;62979;55.720;37.606;2022-12-18T06:41:25;99324.22;;;-1.51;61.55
74561;BME280;62979;55.720;37.606;2022-12-18T06:43:53;99332.78;;;-1.49;61.04
74561;BME280;62979;55.720;37.606;2022-12-18T06:46:20;99332.66;;;-1.57;62.64
74561;BME280;62979;55.720;37.606;2022-12-18T06:48:48;99348.13;;;-1.52;60.85
74561;BME280;62979;55.720;37.606;2022-12-18T06:51:19;99346.31;;;-1.56;60.58
74561;BME280;62979;55.720;37.606;2022-12-18T06:53:47;99347.22;;;-1.54;60.67
74561;BME280;62979;55.720;37.606;2022-12-18T06:56:14;99360.19;;;-1.48;60.10
74561;BME280;62979;55.720;37.606;2022-12-18T06:58:41;99363.69;;;-1.43;60.73
74561;BME280;62979;55.720;37.606;2022-12-18T07:01:09;99360.34;;;-1.39;60.27
74561;BME280;62979;55.720;37.606;2022-12-18T07:03:38;99373.22;;;-1.36;60.16
74561;BME280;62979;55.720;37.606;2022-12-18T07:06:06;99374.88;;;-1.38;59.96
74561;BME280;62979;55.720;37.606;2022-12-18T07:08:40;99381.00;;;-1.30;59.52
74561;BME280;62979;55.720;37.606;2022-12-18T07:11:07;99361.22;;;-1.37;59.01
74561;BME280;62979;55.720;37.606;2022-12-18T07:13:34;99374.25;;;-1.24;59.04
74561;BME280;62979;55.720;37.606;2022-12-18T07:16:06;99375.16;;;-1.22;58.99
74561;BME280;62979;55.720;37.606;2022-12-18T07:18:34;99379.50;;;-1.18;59.05
74561;BME280;62979;55.720;37.606;2022-12-18T07:21:06;99370.97;;;-1.19;59.00
74561;BME280;62979;55.720;37.606;2022-12-18T07:23:35;99376.09;;;-1.17;58.64
74561;BME280;62979;55.720;37.606;2022-12-18T07:26:05;99390.63;;;-1.19;58.02
74561;BME280;62979;55.720;37.606;2022-12-18T07:28:33;99382.75;;;-1.28;58.25
74561;BME280;62979;55.720;37.606;2022-12-18T07:31:02;99415.44;;;-1.18;59.42
74561;BME280;62979;55.720;37.606;2022-12-18T07:33:29;99418.84;;;-1.18;58.54
74561;BME280;62979;55.720;37.606;2022-12-18T07:35:58;99395.53;;;-1.30;58.31
74561;BME280;62979;55.720;37.606;2022-12-18T07:38:25;99406.03;;;-1.19;58.69
74561;BME280;62979;55.720;37.606;2022-12-18T07:40:52;99421.59;;;-1.09;57.75
74561;BME280;62979;55.720;37.606;2022-12-18T07:43:20;99419.88;;;-1.08;57.74
74561;BME280;62979;55.720;37.606;2022-12-18T07:45:49;99418.09;;;-1.14;57.45
74561;BME280;62979;55.720;37.606;2022-12-18T07:48:16;99426.50;;;-1.21;57.95
74561;BME280;62979;55.720;37.606;2022-12-18T07:50:43;99427.34;;;-1.20;57.90
74561;BME280;62979;55.720;37.606;2022-12-18T07:53:10;99416.09;;;-1.28;57.56
74561;BME280;62979;55.720;37.606;2022-12-18T07:55:37;99405.81;;;-1.30;57.76
74561;BME280;62979;55.720;37.606;2022-12-18T07:58:04;99435.19;;;-1.14;58.13
74561;BME280;62979;55.720;37.606;2022-12-18T08:00:32;99423.97;;;-1.18;58.64
74561;BME280;62979;55.720;37.606;2022-12-18T08:02:59;99419.72;;;-1.17;57.61
74561;BME280;62979;55.720;37.606;2022-12-18T08:05:27;99423.31;;;-1.08;58.31
74561;BME280;62979;55.720;37.606;2022-12-18T08:07:54;99411.91;;;-1.23;58.12
74561;BME280;62979;55.720;37.606;2022-12-18T08:10:21;99439.34;;;-1.21;58.04
74561;BME280;62979;55.720;37.606;2022-12-18T08:12:49;99451.47;;;-1.12;58.72
74561;BME280;62979;55.720;37.606;2022-12-18T08:15:17;99457.47;;;-1.10;58.46
74561;BME280;62979;55.720;37.606;2022-12-18T08:17:45;99473.81;;;-1.05;58.39
74561;BME280;62979;55.720;37.606;2022-12-18T08:20:12;99470.25;;;-1.13;58.09
74561;BME280;62979;55.720;37.606;2022-12-18T08:22:40;99478.03;;;-1.09;58.34
74561;BME280;62979;55.720;37.606;2022-12-18T08:25:08;99481.50;;;-1.06;58.30
74561;BME280;62979;55.720;37.606;2022-12-18T08:27:35;99486.66;;;-1.06;58.60
74561;BME280;62979;55.720;37.606;2022-12-18T08:30:03;99499.66;;;-0.96;58.74
74561;BME280;62979;55.720;37.606;2022-12-18T08:32:31;99491.88;;;-1.00;58.12
74561;BME280;62979;55.720;37.606;2022-12-18T08:35:00;99492.81;;;-0.97;58.36
74561;BME280;62979;55.720;37.606;2022-12-18T08:37:27;99494.56;;;-0.94;59.53
74561;BME280;62979;55.720;37.606;2022-12-18T08:39:54;99495.50;;;-0.89;58.35
74561;BME280;62979;55.720;37.606;2022-12-18T08:42:20;99494.66;;;-0.90;58.72
74561;BME280;62979;55.720;37.606;2022-12-18T08:45:06;99504.94;;;-0.90;58.44
74561;BME280;62979;55.720;37.606;2022-12-18T08:47:33;99510.91;;;-0.89;58.91
74561;BME280;62979;55.720;37.606;2022-12-18T08:50:02;99517.91;;;-0.82;58.77
74561;BME280;62979;55.720;37.606;2022-12-18T08:52:31;99508.53;;;-0.78;58.71
74561;BME280;62979;55.720;37.606;2022-12-18T08:54:58;99492.00;;;-0.94;58.19
74561;BME280;62979;55.720;37.606;2022-12-18T08:57:25;99498.13;;;-0.88;59.64
74561;BME280;62979;55.720;37.606;2022-12-18T08:59:52;99506.69;;;-0.87;58.97
74561;BME280;62979;55.720;37.606;2022-12-18T09:02:19;99521.38;;;-0.78;58.71
74561;BME280;62979;55.720;37.606;2022-12-18T09:04:46;99517.84;;;-0.85;58.85
74561;BME280;62979;55.720;37.606;2022-12-18T09:07:15;99504.03;;;-0.92;58.76
74561;BME280;62979;55.720;37.606;2022-12-18T09:09:42;99528.13;;;-0.85;58.61
74561;BME280;62979;55.720;37.606;2022-12-18T09:12:09;99517.03;;;-0.82;58.49
74561;BME280;62979;55.720;37.606;2022-12-18T09:14:36;99521.34;;;-0.80;59.01
74561;BME280;62979;55.720;37.606;2022-12-18T09:17:03;99532.53;;;-0.76;58.63
74561;BME280;62979;55.720;37.606;2022-12-18T09:19:30;99500.56;;;-0.94;59.12
74561;BME280;62979;55.720;37.606;2022-12-18T09:21:57;99549.75;;;-0.72;59.54
74561;BME280;62979;55.720;37.606;2022-12-18T09:24:25;99544.50;;;-0.77;59.17
74561;BME280;62979;55.720;37.606;2022-12-18T09:26:53;99555.78;;;-0.69;59.24
74561;BME280;62979;55.720;37.606;2022-12-18T09:29:21;99558.91;;;-0.85;58.89
74561;BME280;62979;55.720;37.606;2022-12-18T09:31:48;99562.34;;;-0.83;59.66
74561;BME280;62979;55.720;37.606;2022-12-18T09:34:15;99568.47;;;-0.76;59.58
74561;BME280;62979;55.720;37.606;2022-12-18T09:36:43;99573.63;;;-0.76;59.73
74561;BME280;62979;55.720;37.606;2022-12-18T09:39:10;99577.94;;;-0.75;59.72
74561;BME280;62979;55.720;37.606;2022-12-18T09:41:43;99580.47;;;-0.77;59.16
74561;BME280;62979;55.720;37.606;2022-12-18T09:44:23;99587.47;;;-0.68;59.67
74561;BME280;62979;55.720;37.606;2022-12-18T09:47:08;99588.34;;;-0.68;59.44
74561;BME280;62979;55.720;37.606;2022-12-18T09:49:42;99587.59;;;-0.62;59.77
74561;BME280;62979;55.720;37.606;2022-12-18T09:52:15;99596.06;;;-0.66;59.99
74561;BME280;62979;55.720;37.606;2022-12-18T09:54:50;99571.09;;;-0.75;60.02
74561;BME280;62979;55.720;37.606;2022-12-18T09:57:23;99598.53;;;-0.72;60.00
74561;BME280;62979;55.720;37.606;2022-12-18T09:59:55;99591.69;;;-0.72;60.01
74561;BME280;62979;55.720;37.606;2022-12-18T10:02:26;99587.41;;;-0.71;60.29
74561;BME280;62979;55.720;37.606;2022-12-18T10:05:05;99603.94;;;-0.57;60.07
74561;BME280;62979;55.720;37.606;2022-12-18T10:07:43;99606.50;;;-0.57;59.80
74561;BME280;62979;55.720;37.606;2022-12-18T10:10:27;99613.41;;;-0.54;60.08
74561;BME280;62979;55.720;37.606;2022-12-18T10:13:10;99613.31;;;-0.59;60.47
74561;BME280;62979;55.720;37.606;2022-12-18T10:15:53;99613.31;;;-0.60;59.81
74561;BME280;62979;55.720;37.606;2022-12-18T10:18:39;99611.53;;;-0.63;60.30
74561;BME280;62979;55.720;37.606;2022-12-18T10:21:28;99609.06;;;-0.58;60.47
74561;BME280;62979;55.720;37.606;2022-12-18T10:24:13;99610.03;;;-0.53;60.98
74561;BME280;62979;55.720;37.606;2022-12-18T10:26:44;99610.75;;;-0.60;60.63
74561;BME280;62979;55.720;37.606;2022-12-18T10:29:14;99611.59;;;-0.60;59.87
74561;BME280;62979;55.720;37.606;2022-12-18T10:31:43;99606.47;;;-0.60;60.29
74561;BME280;62979;55.720;37.606;2022-12-18T10:34:10;99595.00;;;-0.76;60.28
74561;BME280;62979;55.720;37.606;2022-12-18T10:36:41;99621.88;;;-0.60;60.13
74561;BME280;62979;55.720;37.606;2022-12-18T10:39:19;99613.16;;;-0.68;59.94
74561;BME280;62979;55.720;37.606;2022-12-18T10:41:48;99601.91;;;-0.73;60.21
74561;BME280;62979;55.720;37.606;2022-12-18T10:44:20;99631.34;;;-0.57;60.06
74561;BME280;62979;55.720;37.606;2022-12-18T10:47:04;99631.28;;;-0.59;59.94
74561;BME280;62979;55.720;37.606;2022-12-18T10:49:33;99635.56;;;-0.61;60.13
74561;BME280;62979;55.720;37.606;2022-12-18T10:52:07;99632.00;;;-0.66;60.87
74561;BME280;62979;55.720;37.606;2022-12-18T10:54:48;99650.63;;;-0.76;60.16
74561;BME280;62979;55.720;37.606;2022-12-18T10:57:32;99653.25;;;-0.73;60.90
74561;BME280;62979;55.720;37.606;2022-12-18T11:00:22;99669.56;;;-0.73;60.95
74561;BME280;62979;55.720;37.606;2022-12-18T11:02:51;99672.84;;;-0.78;60.80
74561;BME280;62979;55.720;37.606;2022-12-18T11:05:26;99686.53;;;-0.79;61.20
74561;BME280;62979;55.720;37.606;2022-12-18T11:07:56;99680.53;;;-0.80;60.63
74561;BME280;62979;55.720;37.606;2022-12-18T11:10:28;99685.66;;;-0.80;60.78
74561;BME280;62979;55.720;37.606;2022-12-18T11:13:10;99694.28;;;-0.78;61.38
74561;BME280;62979;55.720;37.606;2022-12-18T11:15:41;99696.06;;;-0.74;61.20
74561;BME280;62979;55.720;37.606;2022-12-18T11:18:16;99695.19;;;-0.74;61.19
74561;BME280;62979;55.720;37.606;2022-12-18T11:20:51;99700.13;;;-0.83;60.37
74561;BME280;62979;55.720;37.606;2022-12-18T11:23:21;99691.53;;;-0.86;61.78
74561;BME280;62979;55.720;37.606;2022-12-18T11:25:52;99688.91;;;-0.89;61.41
74561;BME280;62979;55.720;37.606;2022-12-18T11:28:27;99693.94;;;-0.93;61.59
74561;BME280;62979;55.720;37.606;2022-12-18T11:31:27;99695.69;;;-0.91;61.23
74561;BME280;62979;55.720;37.606;2022-12-18T11:34:00;99694.78;;;-0.93;61.26
74561;BME280;62979;55.720;37.606;2022-12-18T11:36:34;99694.78;;;-0.94;61.84
74561;BME280;62979;55.720;37.606;2022-12-18T11:39:12;99695.78;;;-0.88;61.81
74561;BME280;62979;55.720;37.606;2022-12-18T11:41:50;99692.38;;;-0.87;61.90
74561;BME280;62979;55.720;37.606;2022-12-18T11:44:42;99702.69;;;-0.85;61.59
74561;BME280;62979;55.720;37.606;2022-12-18T11:47:20;99706.91;;;-0.86;61.97
74561;BME280;62979;55.720;37.606;2022-12-18T11:49:56;99710.13;;;-0.96;61.89
74561;BME280;62979;55.720;37.606;2022-12-18T11:52:31;99715.25;;;-0.96;62.21
74561;BME280;62979;55.720;37.606;2022-12-18T11:55:11;99736.00;;;-0.87;61.87
74561;BME280;62979;55.720;37.606;2022-12-18T11:57:48;99728.34;;;-0.85;62.08
74561;BME280;62979;55.720;37.606;2022-12-18T12:00:23;99734.09;;;-0.95;61.03
74561;BME280;62979;55.720;37.606;2022-12-18T12:03:11;99748.84;;;-0.87;60.88
74561;BME280;62979;55.720;37.606;2022-12-18T12:06:08;99761.69;;;-0.87;61.34
74561;BME280;62979;55.720;37.606;2022-12-18T12:08:52;99760.47;;;-1.02;61.23
74561;BME280;62979;55.720;37.606;2022-12-18T12:11:37;99777.38;;;-1.12;60.40
74561;BME280;62979;55.720;37.606;2022-12-18T12:14:23;99782.44;;;-1.14;61.77
74561;BME280;62979;55.720;37.606;2022-12-18T12:17:07;99779.78;;;-1.18;62.31
74561;BME280;62979;55.720;37.606;2022-12-18T12:19:51;99792.72;;;-1.14;61.60
74561;BME280;62979;55.720;37.606;2022-12-18T12:22:27;99788.44;;;-1.13;61.94
74561;BME280;62979;55.720;37.606;2022-12-18T12:25:16;99797.13;;;-1.08;62.24
74561;BME280;62979;55.720;37.606;2022-12-18T12:28:03;99804.81;;;-1.08;60.97
74561;BME280;62979;55.720;37.606;2022-12-18T12:30:52;99802.25;;;-1.08;61.29
74561;BME280;62979;55.720;37.606;2022-12-18T12:33:36;99812.50;;;-1.10;61.25
74561;BME280;62979;55.720;37.606;2022-12-18T12:36:20;99814.28;;;-1.05;61.12
74561;BME280;62979;55.720;37.606;2022-12-18T12:38:59;99820.38;;;-1.02;61.45
74561;BME280;62979;55.720;37.606;2022-12-18T12:41:32;99826.13;;;-1.12;60.83
74561;BME280;62979;55.720;37.606;2022-12-18T12:44:23;99815.75;;;-1.15;64.25
74561;BME280;62979;55.720;37.606;2022-12-18T12:46:57;99831.31;;;-1.09;62.31
74561;BME280;62979;55.720;37.606;2022-12-18T12:49:32;99822.22;;;-1.31;63.87
74561;BME280;62979;55.720;37.606;2022-12-18T12:52:06;99838.66;;;-1.23;62.94
74561;BME280;62979;55.720;37.606;2022-12-18T12:54:38;99859.94;;;-1.27;63.38
74561;BME280;62979;55.720;37.606;2022-12-18T12:57:10;99853.13;;;-1.26;63.53
74561;BME280;62979;55.720;37.606;2022-12-18T12:59:47;99863.53;;;-1.20;63.04
74561;BME280;62979;55.720;37.606;2022-12-18T13:02:30;99866.16;;;-1.17;62.40
74561;BME280;62979;55.720;37.606;2022-12-18T13:05:14;99868.84;;;-1.14;62.42
74561;BME280;62979;55.720;37.606;2022-12-18T13:07:54;99881.00;;;-1.07;62.22
74561;BME280;62979;55.720;37.606;2022-12-18T13:10:28;99878.44;;;-1.07;61.93
74561;BME280;62979;55.720;37.606;2022-12-18T13:13:01;99881.00;;;-1.07;61.88
74561;BME280;62979;55.720;37.606;2022-12-18T13:15:34;99891.25;;;-1.07;62.23